createdAt,value
2022-10-20T00:01:39.649Z,16.38
2022-10-20T00:06:41.237Z,17.40
2022-10-20T00:11:43.098Z,15.00
2022-10-20T00:16:44.710Z,16.40
2022-10-20T00:21:46.260Z,17.23
2022-10-20T00:26:47.854Z,17.15
2022-10-20T00:31:49.409Z,17.27
2022-10-20T00:36:51.527Z,17.02
2022-10-20T00:41:53.262Z,18.45
2022-10-20T00:46:55.075Z,17.30
2022-10-20T00:51:56.635Z,17.35
2022-10-20T00:56:59.802Z,16.50
2022-10-20T01:02:02.750Z,18.13
2022-10-20T01:07:05.317Z,21.65
2022-10-20T01:12:26.861Z,17.90
2022-10-20T01:17:34.553Z,20.33
2022-10-20T01:23:07.711Z,22.67
2022-10-20T01:28:18.089Z,30.08
2022-10-20T01:33:29.789Z,26.33
2022-10-20T01:38:50.470Z,34.15
2022-10-20T01:43:52.901Z,35.70
2022-10-20T01:48:55.070Z,42.45
2022-10-20T01:53:56.603Z,44.25
2022-10-20T01:59:10.068Z,39.50
2022-10-20T02:04:12.652Z,35.85
2022-10-20T02:09:24.966Z,37.85
2022-10-20T02:14:27.028Z,29.45
2022-10-20T02:19:33.557Z,26.75
2022-10-20T02:24:39.959Z,26.70
2022-10-20T02:29:57.270Z,22.17
2022-10-20T02:35:03.441Z,19.02
2022-10-20T02:40:08.643Z,18.70
2022-10-20T02:45:11.090Z,15.95
2022-10-20T02:50:12.656Z,19.23
2022-10-20T02:55:14.359Z,16.08
2022-10-20T03:00:16.019Z,17.65
2022-10-20T03:05:18.860Z,16.92
2022-10-20T03:10:20.425Z,15.63
2022-10-20T03:15:22.211Z,16.45
2022-10-20T03:20:23.872Z,16.25
2022-10-20T03:25:25.568Z,17.30
2022-10-20T03:30:27.512Z,17.90
2022-10-20T03:35:29.115Z,16.33
2022-10-20T03:40:30.670Z,17.75
2022-10-20T03:45:32.385Z,17.77
2022-10-20T03:50:34.246Z,15.70
2022-10-20T03:55:37.519Z,16.45
2022-10-20T04:00:39.144Z,16.88
2022-10-20T04:05:41.090Z,18.05
2022-10-20T04:10:42.660Z,16.90
2022-10-20T04:15:44.192Z,14.60
2022-10-20T04:20:47.255Z,19.27
2022-10-20T04:25:48.891Z,18.42
2022-10-20T04:30:50.474Z,22.70
2022-10-20T04:36:06.595Z,21.38
2022-10-20T04:41:08.278Z,25.20
2022-10-20T04:46:11.007Z,25.25
2022-10-20T04:51:14.481Z,20.63
2022-10-20T04:56:19.510Z,19.38
2022-10-20T05:01:23.181Z,22.23
2022-10-20T05:06:30.535Z,19.00
2022-10-20T05:11:35.933Z,18.30
2022-10-20T05:16:37.658Z,17.67
2022-10-20T05:21:39.299Z,17.05
2022-10-20T05:26:40.978Z,22.98
2022-10-20T05:31:44.002Z,17.20
2022-10-20T05:36:45.564Z,18.60
2022-10-20T05:41:47.179Z,20.33
2022-10-20T05:46:48.734Z,21.80
2022-10-20T05:51:50.315Z,24.17
2022-10-20T05:56:51.910Z,24.13
2022-10-20T06:01:53.527Z,23.55
2022-10-20T06:06:56.010Z,31.85
2022-10-20T06:11:58.760Z,41.70
2022-10-20T06:17:00.391Z,34.05
2022-10-20T06:22:05.494Z,20.45
2022-10-20T06:27:08.251Z,18.10
2022-10-20T06:32:09.863Z,20.55
2022-10-20T06:37:11.459Z,18.85
2022-10-20T06:42:13.046Z,20.15
2022-10-20T06:47:14.607Z,18.65
2022-10-20T06:52:16.276Z,17.55
2022-10-20T06:57:17.839Z,19.95
2022-10-20T07:02:19.416Z,18.98
2022-10-20T07:07:20.989Z,19.42
2022-10-20T07:12:22.525Z,18.00
2022-10-20T07:17:24.126Z,20.52
2022-10-20T07:22:25.667Z,18.33
2022-10-20T07:27:27.207Z,20.55
2022-10-20T07:32:28.770Z,21.13
2022-10-20T07:37:30.414Z,18.20
2022-10-20T07:42:31.972Z,20.35
2022-10-20T07:47:38.159Z,17.10
2022-10-20T07:52:41.195Z,21.17
2022-10-20T07:57:42.748Z,17.08
2022-10-20T08:02:45.622Z,18.83
2022-10-20T08:07:47.186Z,16.23
2022-10-20T08:12:48.754Z,17.88
2022-10-20T08:17:50.400Z,20.75
2022-10-20T08:22:51.955Z,18.17
2022-10-20T08:27:53.621Z,15.05
2022-10-20T08:32:55.212Z,14.52
2022-10-20T08:37:56.800Z,25.20
2022-10-20T08:42:58.571Z,13.20
2022-10-20T08:48:00.389Z,15.35
2022-10-20T08:53:02.049Z,15.52
2022-10-20T08:58:19.101Z,14.52
2022-10-20T09:03:24.276Z,13.50
2022-10-20T09:08:29.377Z,13.32
2022-10-20T09:13:32.839Z,11.48
2022-10-20T09:18:35.142Z,11.38
2022-10-20T09:23:45.894Z,11.15
2022-10-20T09:29:12.023Z,12.13
2022-10-20T09:34:25.315Z,8.45
2022-10-20T09:39:29.640Z,9.05
2022-10-20T09:44:35.576Z,8.23
2022-10-20T09:49:38.831Z,6.75
2022-10-20T09:54:40.453Z,6.35
2022-10-20T09:59:45.795Z,6.25
2022-10-20T10:04:49.558Z,7.35
2022-10-20T10:10:04.016Z,6.07
2022-10-20T10:15:27.959Z,6.22
2022-10-20T10:20:39.550Z,7.22
2022-10-20T10:25:41.187Z,5.95
2022-10-20T10:30:46.844Z,7.15
2022-10-20T10:35:51.370Z,6.20
2022-10-20T10:41:15.156Z,5.22
2022-10-20T10:46:26.759Z,6.03
2022-10-20T10:51:38.780Z,9.70
2022-10-20T10:56:54.219Z,3.67
2022-10-20T11:02:14.233Z,4.70
2022-10-20T11:07:51.396Z,5.68
2022-10-20T11:13:03.614Z,6.18
2022-10-20T11:18:13.991Z,5.18
2022-10-20T11:23:43.429Z,5.30
2022-10-20T11:28:48.708Z,7.05
2022-10-20T11:33:57.503Z,7.40
2022-10-20T11:38:59.071Z,4.75
2022-10-20T11:44:31.055Z,5.32
2022-10-20T11:49:33.957Z,7.10
2022-10-20T11:54:53.314Z,5.40
2022-10-20T12:00:04.548Z,6.50
2022-10-20T12:05:35.413Z,8.00
2022-10-20T12:10:49.738Z,8.77
2022-10-20T12:15:53.529Z,5.75
2022-10-20T12:21:00.757Z,15.73
2022-10-20T12:26:02.321Z,8.35
2022-10-20T12:31:05.665Z,8.40
2022-10-20T12:36:19.155Z,8.30
2022-10-20T12:41:25.807Z,9.90
2022-10-20T12:46:31.459Z,9.57
2022-10-20T12:51:47.052Z,7.05
2022-10-20T12:56:49.826Z,7.72
2022-10-20T13:02:09.607Z,7.60
2022-10-20T13:07:11.136Z,11.05
2022-10-20T13:12:29.024Z,6.88
2022-10-20T13:17:48.586Z,9.10
2022-10-20T13:22:52.721Z,11.65
2022-10-20T13:28:03.804Z,8.23
2022-10-20T13:33:38.852Z,10.68
2022-10-20T13:38:46.616Z,11.53
2022-10-20T13:43:56.742Z,11.20
2022-10-20T13:49:15.023Z,12.30
2022-10-20T13:54:29.897Z,8.98
2022-10-20T13:59:31.886Z,10.38
2022-10-20T14:04:36.395Z,10.27
2022-10-20T14:09:40.581Z,10.75
2022-10-20T14:14:45.567Z,10.77
2022-10-20T14:19:47.128Z,7.88
2022-10-20T14:24:52.323Z,12.23
2022-10-20T14:29:54.223Z,9.13
2022-10-20T14:35:01.273Z,9.07
2022-10-20T14:40:06.417Z,10.13
2022-10-20T14:45:18.877Z,9.30
2022-10-20T14:50:28.190Z,13.40
2022-10-20T14:55:35.581Z,10.75
2022-10-20T15:00:37.424Z,11.05
2022-10-20T15:05:43.674Z,8.98
2022-10-20T15:10:46.163Z,12.95
2022-10-20T15:15:48.235Z,9.70
2022-10-20T15:20:51.661Z,12.80
2022-10-20T15:26:06.916Z,9.55
2022-10-20T15:31:23.732Z,10.57
2022-10-20T15:36:33.281Z,10.05
2022-10-20T15:41:36.323Z,17.77
2022-10-20T15:46:37.933Z,14.68
2022-10-20T15:51:42.526Z,15.40
2022-10-20T15:56:44.292Z,12.85
2022-10-20T16:01:45.888Z,14.02
2022-10-20T16:06:47.592Z,14.68
2022-10-20T16:11:50.012Z,13.85
2022-10-20T16:16:51.653Z,16.10
2022-10-20T16:21:53.221Z,16.83
2022-10-20T16:26:54.831Z,20.90
2022-10-20T16:31:58.216Z,21.05
2022-10-20T16:36:59.850Z,22.80
2022-10-20T16:42:01.463Z,16.05
2022-10-20T16:47:03.058Z,17.27
2022-10-20T16:52:04.730Z,50.10
2022-10-20T16:57:09.301Z,54.03
2022-10-20T17:02:12.724Z,37.65
2022-10-20T17:07:14.385Z,76.40
2022-10-20T17:12:15.982Z,44.25
2022-10-20T17:17:17.572Z,57.58
2022-10-20T17:22:19.161Z,63.10
2022-10-20T17:27:20.710Z,68.22
2022-10-20T17:32:22.260Z,62.90
2022-10-20T17:37:24.184Z,93.32
2022-10-20T17:42:25.768Z,38.97
2022-10-20T17:47:27.915Z,35.95
2022-10-20T17:52:30.280Z,29.13
2022-10-20T17:57:32.076Z,33.30
2022-10-20T18:02:33.662Z,273.92
2022-10-20T18:07:35.358Z,133.43
2022-10-20T18:12:38.381Z,90.10
2022-10-20T18:17:40.183Z,59.45
2022-10-20T18:22:41.736Z,72.68
2022-10-20T18:27:43.285Z,33.15
2022-10-20T18:32:44.825Z,52.22
2022-10-20T18:37:50.028Z,27.33
2022-10-20T18:42:51.670Z,50.78
2022-10-20T18:47:53.528Z,20.42
2022-10-20T18:52:55.353Z,33.13
2022-10-20T18:57:56.934Z,21.20
2022-10-20T19:03:00.846Z,29.27
2022-10-20T19:08:03.445Z,41.20
2022-10-20T19:13:04.979Z,34.60
2022-10-20T19:18:06.888Z,73.43
2022-10-20T19:23:08.450Z,59.72
2022-10-20T19:28:12.655Z,59.25
2022-10-20T19:33:14.296Z,68.32
2022-10-20T19:38:16.238Z,42.15
2022-10-20T19:43:17.808Z,45.92
2022-10-20T19:48:20.095Z,38.25
2022-10-20T19:53:22.146Z,27.95
2022-10-20T19:58:24.051Z,25.70
2022-10-20T20:03:26.201Z,28.95
2022-10-20T20:08:28.094Z,34.88
2022-10-20T20:13:30.222Z,29.63
2022-10-20T20:18:31.843Z,24.67
2022-10-20T20:23:54.405Z,20.15
2022-10-20T20:28:57.244Z,26.38
2022-10-20T20:33:58.946Z,23.98
2022-10-20T20:39:01.257Z,22.50
2022-10-20T20:44:07.763Z,23.52
2022-10-20T20:49:09.956Z,27.02
2022-10-20T20:54:11.583Z,33.72
2022-10-20T20:59:13.479Z,27.52
2022-10-20T21:04:15.945Z,22.02
2022-10-20T21:09:17.554Z,26.40
2022-10-20T21:14:19.121Z,27.52
2022-10-20T21:19:20.673Z,30.38
2022-10-20T21:24:22.213Z,33.15
2022-10-20T21:29:23.945Z,35.72
2022-10-20T21:34:26.334Z,31.27
2022-10-20T21:39:27.984Z,28.75
2022-10-20T21:44:29.632Z,30.48
2022-10-20T21:49:31.687Z,25.13
2022-10-20T21:54:33.359Z,25.15
2022-10-20T21:59:34.890Z,23.63
2022-10-20T22:04:36.434Z,25.33
2022-10-20T22:09:38.064Z,26.83
2022-10-20T22:14:42.531Z,27.42
2022-10-20T22:19:46.845Z,22.15
2022-10-20T22:24:48.462Z,27.67
2022-10-20T22:29:51.411Z,24.80
2022-10-20T22:34:54.568Z,26.35
2022-10-20T22:39:56.141Z,23.80
2022-10-20T22:44:57.699Z,27.40
2022-10-20T22:49:59.284Z,26.67
2022-10-20T22:55:00.834Z,24.90
2022-10-20T23:00:04.883Z,23.90
2022-10-20T23:05:06.686Z,24.17
2022-10-20T23:10:08.605Z,28.58
2022-10-20T23:15:10.589Z,26.00
2022-10-20T23:20:12.236Z,26.30
2022-10-20T23:25:14.021Z,26.42
2022-10-20T23:30:15.572Z,26.23
2022-10-20T23:35:17.124Z,28.17
2022-10-20T23:40:18.692Z,29.10
2022-10-20T23:45:20.309Z,27.90
2022-10-20T23:50:23.505Z,28.65
2022-10-20T23:55:25.124Z,25.40
